»·PEaware :: SKY129 KPRC-KHII

SKY129 :: KPRC-KHII

FLIGHT INFORMATION

Flight Status: Arrived
Operator:
Sky High Charters
More flights by this operator :: More flights under this callsign
Pilot: Carlos L. (38175)
Aircraft: Unknown
(BTM9)
More flights by this aircraft type
Origin: KPRC Love
United States
Destination: KHII Lake Havasu City
United States
More flights between these airports :: More routes between these airports
Route: WNSKI2 MUMTE V12 EED
File this flight plan on PilotEdge
Remarks:
Altitude:
(Current/Filed)
16,000ft
Speed:
(Current/Filed)
200kts
Departed: 26-May-23 07:09 PM
Arrived: 26-May-23 07:46 PM
Distance/Time
Traveled:
96nm/0:37
Distance/Time
To Go:
Arrived

Flight Plot

Page will automatically refresh every two minutes.

Flight plan parsing failed; only flown route is shown


Map Options




Map Legend


Flown Route
Filed Route
Departure Airport
Arrival Airport
Navaid (VOR, NDB)
Fix

Horizontal Profiles

Position Reports

Time Latitude Longitude Heading Altitude Ground
Speed
26-May-23 18:49 34.658061 -112.412919 47 4978ft 0kts
26-May-23 18:50 34.658061 -112.412919 47 4978ft 0kts
26-May-23 18:51 34.658061 -112.412919 47 4978ft 0kts
26-May-23 18:52 34.658061 -112.412919 47 4978ft 0kts
26-May-23 18:53 34.658061 -112.412919 47 4978ft 0kts
26-May-23 18:54 34.658061 -112.412919 47 4978ft 0kts
26-May-23 18:55 34.658061 -112.412919 47 4978ft 0kts
26-May-23 18:56 34.658062 -112.412919 47 4978ft 0kts
26-May-23 18:57 34.658062 -112.412919 47 4978ft 0kts
26-May-23 18:58 34.658062 -112.412919 47 4978ft 0kts
26-May-23 18:59 34.658062 -112.412918 47 4978ft 0kts
26-May-23 19:00 34.658062 -112.412918 47 4978ft 0kts
26-May-23 19:01 34.658062 -112.412918 47 4978ft 0kts
26-May-23 19:02 34.659934 -112.411329 44 4966ft 19kts
26-May-23 19:03 34.660680 -112.410002 13 4959ft 0kts
26-May-23 19:04 34.660680 -112.410002 13 4959ft 0kts
26-May-23 19:05 34.660680 -112.410002 13 4959ft 0kts
26-May-23 19:06 34.661502 -112.410473 318 4959ft 0kts
26-May-23 19:07 34.661684 -112.411673 238 4958ft 23kts
26-May-23 19:08 34.643258 -112.427541 179 6159ft 112kts
26-May-23 19:09 34.638570 -112.397290 89 8104ft 120kts
26-May-23 19:10 34.619872 -112.364632 132 10191ft 107kts
26-May-23 19:11 34.595876 -112.331560 133 10755ft 137kts
26-May-23 19:12 34.571098 -112.297331 133 12979ft 141kts
26-May-23 19:13 34.524222 -112.273522 206 13053ft 228kts
26-May-23 19:14 34.485022 -112.332005 242 14163ft 207kts
26-May-23 19:15 34.462386 -112.398232 254 15811ft 224kts
26-May-23 19:16 34.453111 -112.479381 270 15988ft 260kts
26-May-23 19:17 34.463798 -112.567993 288 15992ft 277kts
26-May-23 19:18 34.497350 -112.652537 306 15990ft 281kts
26-May-23 19:19 34.550366 -112.720458 325 16007ft 276kts
26-May-23 19:20 34.617002 -112.765152 343 16004ft 272kts
26-May-23 19:21 34.687929 -112.794466 326 15990ft 275kts
26-May-23 19:22 34.717932 -112.876380 271 15991ft 291kts
26-May-23 19:23 34.721945 -112.984890 272 15994ft 342kts
26-May-23 19:24 34.726082 -113.102521 274 16014ft 349kts
26-May-23 19:25 34.730254 -113.219968 273 16011ft 340kts
26-May-23 19:26 34.733974 -113.331834 272 16009ft 325kts
26-May-23 19:27 34.737531 -113.441033 272 15993ft 321kts
26-May-23 19:28 34.740931 -113.548948 272 15991ft 317kts
26-May-23 19:29 34.744195 -113.655568 272 15992ft 314kts
26-May-23 19:30 34.747323 -113.760955 272 16000ft 310kts
26-May-23 19:31 34.750316 -113.865299 272 15991ft 307kts
26-May-23 19:32 34.753204 -113.967872 272 15796ft 304kts
26-May-23 19:33 34.755948 -114.068404 272 14626ft 289kts
26-May-23 19:34 34.758500 -114.165165 272 14041ft 287kts
26-May-23 19:35 34.758705 -114.172982 272 13954ft 289kts
26-May-23 19:38 34.763263 -114.351864 272 11875ft 299kts
26-May-23 19:39 34.738630 -114.426591 216 10044ft 194kts
26-May-23 19:40 34.693674 -114.443367 177 7888ft 172kts
26-May-23 19:41 34.650169 -114.420538 150 5363ft 162kts
26-May-23 19:42 34.617879 -114.394734 152 3063ft 93kts
26-May-23 19:43 34.599528 -114.379918 152 1766ft 68kts
26-May-23 19:44 34.583543 -114.367093 154 847ft 67kts
26-May-23 19:45 34.573913 -114.361497 162 763ft 6kts
26-May-23 19:46 34.573862 -114.361474 160 763ft 0kts
26-May-23 19:47 34.573862 -114.361474 160 763ft 0kts
26-May-23 19:48 34.573862 -114.361474 160 763ft 0kts
26-May-23 19:49 34.573862 -114.361474 160 763ft 0kts

Navigation Log

Ident Type
Flight plan parsing failed, navigation log unavailable